Time;durP1;ratioP1;P1;durP2;ratioP2;P2;SDS_P1;SDS_P2;PMS_P1;PMS_P2;Temp;Humidity;BMP_temperature;BMP_pressure;BME280_temperature;BME280_humidity;BME280_pressure;Samples;Min_cycle;Max_cycle;Signal;HPM_P1;HPM_P2
2022/11/17 00:01:20;;;;;;;;;;;9.40;99.90;;;;;;5027075;28;20028;-75
2022/11/17 00:03:50;;;;;;;5.43;2.00;;;9.40;99.90;;;;;;5029477;28;20259;-76
2022/11/17 00:06:19;;;;;;;2.80;1.85;;;9.40;99.90;;;;;;5026127;28;20081;-75
2022/11/17 00:08:45;;;;;;;3.00;1.80;;;9.50;99.90;;;;;;5025704;28;20030;-75
2022/11/17 00:11:13;;;;;;;9.40;2.20;;;9.50;99.90;;;;;;5025652;28;20148;-75
2022/11/17 00:16:29;;;;;;;4.88;1.95;;;9.50;99.90;;;;;;5025556;28;20072;-76
2022/11/17 00:21:45;;;;;;;7.25;2.35;;;9.50;99.90;;;;;;5030913;28;20079;-75
2022/11/17 00:24:15;;;;;;;3.63;1.85;;;9.50;99.90;;;;;;5030781;28;20494;-74
2022/11/17 00:27:04;;;;;;;2.63;1.50;;;9.50;99.90;;;;;;5024949;28;20724;-74
2022/11/17 00:29:39;;;;;;;4.43;1.80;;;9.50;99.90;;;;;;5028849;28;20044;-74
2022/11/17 00:34:53;;;;;;;4.53;1.90;;;9.50;99.90;;;;;;5028470;28;20024;-76
2022/11/17 00:37:21;;;;;;;3.83;1.63;;;9.50;99.90;;;;;;5029643;28;20096;-76
2022/11/17 00:39:47;;;;;;;3.08;1.80;;;9.50;99.90;;;;;;5027996;28;20033;-75
2022/11/17 00:42:13;;;;;;;3.53;1.70;;;9.50;99.90;;;;;;5029116;28;20025;-74
2022/11/17 00:44:41;;;;;;;2.00;1.33;;;9.60;99.90;;;;;;5027482;28;20501;-75
2022/11/17 00:47:07;;;;;;;6.05;1.70;;;9.60;99.90;;;;;;5025408;28;20037;-75
2022/11/17 00:49:38;;;;;;;2.85;1.63;;;9.60;99.90;;;;;;5024888;28;20034;-75
2022/11/17 00:52:08;;;;;;;4.72;1.42;;;9.60;99.90;;;;;;5020791;28;20029;-73
2022/11/17 00:54:34;;;;;;;2.72;1.67;;;9.60;99.90;;;;;;5025216;28;20109;-75
2022/11/17 00:57:12;;;;;;;2.17;1.50;;;9.60;99.90;;;;;;5024005;28;20100;-75
2022/11/17 00:59:37;;;;;;;2.92;1.40;;;9.70;99.90;;;;;;5027115;28;20057;-75
2022/11/17 01:02:09;;;;;;;4.25;1.90;;;9.70;99.90;;;;;;5026914;28;20068;-75
2022/11/17 01:04:37;;;;;;;3.97;1.65;;;9.70;99.90;;;;;;5027379;28;20029;-75
2022/11/17 01:07:03;;;;;;;2.63;1.90;;;9.70;99.90;;;;;;5031431;28;20037;-75
2022/11/17 01:09:32;;;;;;;3.72;2.05;;;9.70;99.90;;;;;;5028836;28;20095;-75
2022/11/17 01:11:57;;;;;;;3.47;2.00;;;9.70;99.90;;;;;;5049083;23;20500;-77
2022/11/17 01:14:25;;;;;;;2.60;1.75;;;9.70;99.90;;;;;;5032922;28;20048;-75
2022/11/17 01:16:54;;;;;;;15.68;2.25;;;9.70;99.90;;;;;;5033050;28;20026;-75
2022/11/17 01:19:21;;;;;;;3.70;1.80;;;9.70;99.90;;;;;;5032268;28;20474;-75
2022/11/17 01:21:47;;;;;;;2.90;1.75;;;9.70;99.90;;;;;;5033869;28;20023;-74
2022/11/17 01:24:15;;;;;;;3.13;1.50;;;9.70;99.90;;;;;;5037011;28;20426;-76
2022/11/17 01:26:44;;;;;;;2.22;1.38;;;9.70;99.90;;;;;;5036584;28;20029;-76
2022/11/17 01:29:12;;;;;;;2.88;1.55;;;9.80;99.90;;;;;;5032438;28;20029;-76
2022/11/17 01:31:43;;;;;;;2.33;1.45;;;9.80;99.90;;;;;;5031558;28;20034;-76
2022/11/17 01:34:11;;;;;;;6.97;2.00;;;9.80;99.90;;;;;;5032840;28;20034;-75
2022/11/17 01:39:26;;;;;;;2.65;1.60;;;9.80;99.90;;;;;;5021125;28;20028;-74
2022/11/17 01:41:52;;;;;;;2.53;1.65;;;9.90;99.90;;;;;;5030934;28;20041;-74
2022/11/17 01:44:37;;;;;;;3.70;1.73;;;9.90;99.90;;;;;;5033431;28;20057;-73
2022/11/17 01:47:16;;;;;;;6.10;2.75;;;9.80;99.90;;;;;;5032311;28;20029;-75
2022/11/17 01:49:41;;;;;;;5.05;2.00;;;9.80;99.90;;;;;;5031115;28;20030;-75
2022/11/17 01:52:14;;;;;;;3.70;2.05;;;9.80;99.90;;;;;;5026695;28;20161;-75
2022/11/17 01:54:42;;;;;;;3.47;1.92;;;9.80;99.90;;;;;;5025859;28;20076;-75
2022/11/17 01:57:17;;;;;;;2.50;1.80;;;9.80;99.90;;;;;;5032135;28;20029;-75
2022/11/17 01:59:47;;;;;;;3.08;1.80;;;9.80;99.90;;;;;;5032468;28;20071;-75
2022/11/17 02:02:13;;;;;;;2.70;1.67;;;9.80;99.90;;;;;;5024701;28;20041;-75
2022/11/17 02:04:48;;;;;;;3.38;1.58;;;9.90;99.90;;;;;;5028885;28;20021;-74
2022/11/17 02:07:29;;;;;;;3.47;2.05;;;9.90;99.90;;;;;;5031620;28;20100;-75
2022/11/17 02:10:05;;;;;;;2.90;1.77;;;9.90;99.90;;;;;;5032396;28;20030;-74
2022/11/17 02:12:35;;;;;;;3.08;1.80;;;9.90;99.90;;;;;;5029089;28;20017;-75
2022/11/17 02:15:03;;;;;;;3.90;1.70;;;9.90;99.90;;;;;;5027086;28;20022;-75
2022/11/17 02:17:37;;;;;;;3.30;1.88;;;9.90;99.90;;;;;;5025371;28;20030;-75
2022/11/17 02:20:14;;;;;;;1.98;1.30;;;9.90;99.90;;;;;;5025475;28;20484;-75
2022/11/17 02:23:11;;;;;;;2.33;1.70;;;9.90;99.90;;;;;;5032653;28;20117;-75
2022/11/17 02:26:01;;;;;;;3.55;1.58;;;9.90;99.90;;;;;;5032528;28;20021;-75
2022/11/17 02:29:20;;;;;;;4.03;1.80;;;9.90;99.90;;;;;;5032754;28;20028;-74
2022/11/17 02:32:13;;;;;;;3.58;1.50;;;9.90;99.90;;;;;;5025994;28;20498;-75
2022/11/17 02:34:45;;;;;;;4.20;1.80;;;9.90;99.90;;;;;;5029494;28;20029;-75
2022/11/17 02:37:36;;;;;;;1.77;1.20;;;9.90;99.90;;;;;;5030484;28;20021;-74
2022/11/17 02:40:23;;;;;;;3.47;1.30;;;9.90;99.90;;;;;;5032851;28;20026;-75
2022/11/17 02:46:07;;;;;;;3.15;1.30;;;9.90;99.90;;;;;;5024294;28;20029;-74
2022/11/17 02:48:37;;;;;;;4.10;1.27;;;9.90;99.90;;;;;;5030118;28;20025;-75
2022/11/17 02:51:10;;;;;;;2.67;1.48;;;10.00;99.90;;;;;;5026443;28;20080;-75
2022/11/17 02:53:37;;;;;;;3.13;1.27;;;10.00;99.90;;;;;;5027871;28;20505;-76
2022/11/17 02:56:12;;;;;;;2.15;1.20;;;10.00;99.90;;;;;;5029141;28;20079;-76
2022/11/17 02:58:37;;;;;;;2.50;1.35;;;10.00;99.90;;;;;;5029128;28;20026;-75
2022/11/17 03:01:27;;;;;;;3.67;1.98;;;10.00;99.90;;;;;;5028761;28;20509;-75
2022/11/17 03:04:16;;;;;;;2.88;1.83;;;10.00;99.90;;;;;;5032353;28;20018;-74
2022/11/17 03:07:14;;;;;;;4.53;1.55;;;10.00;99.90;;;;;;5025147;28;20386;-74
2022/11/17 03:09:59;;;;;;;3.88;1.63;;;10.10;99.90;;;;;;5021507;28;20025;-76
2022/11/17 03:12:40;;;;;;;;;;;10.10;99.90;;;;;;5026150;28;20037;-75
2022/11/17 03:15:39;;;;;;;1.52;1.35;;;10.10;99.90;;;;;;5030269;28;19912;-74
2022/11/17 03:18:23;;;;;;;2.40;1.60;;;10.20;99.90;;;;;;5029134;28;20036;-75
2022/11/17 03:21:26;;;;;;;3.10;2.17;;;10.20;99.90;;;;;;5030392;28;20036;-75
2022/11/17 03:24:05;;;;;;;4.95;2.38;;;10.20;99.90;;;;;;5011418;28;20038;-74
2022/11/17 03:26:42;;;;;;;3.85;1.80;;;10.10;99.90;;;;;;5026602;28;20023;-75
2022/11/17 03:29:13;;;;;;;4.18;1.92;;;10.20;99.90;;;;;;5028914;28;20025;-74
2022/11/17 03:31:41;;;;;;;6.50;2.58;;;10.10;99.90;;;;;;5022034;28;20426;-74
2022/11/17 03:34:12;;;;;;;4.00;2.10;;;10.10;99.90;;;;;;5030237;28;20113;-75
2022/11/17 03:36:45;;;;;;;4.10;2.35;;;10.00;99.90;;;;;;5035314;28;20096;-75
2022/11/17 03:39:28;;;;;;;4.22;2.55;;;10.00;99.90;;;;;;5029977;28;20514;-75
2022/11/17 03:42:01;;;;;;;7.03;3.33;;;10.00;99.90;;;;;;5033428;28;20066;-75
2022/11/17 03:44:30;;;;;;;4.10;3.03;;;9.90;99.90;;;;;;5037879;28;20367;-74
2022/11/17 03:47:04;;;;;;;4.00;2.63;;;9.90;99.90;;;;;;5028264;28;20036;-73
2022/11/17 03:49:35;;;;;;;4.50;3.00;;;9.80;99.90;;;;;;5031493;28;20192;-74
2022/11/17 03:52:02;;;;;;;5.68;2.60;;;9.80;99.90;;;;;;5030715;28;20032;-74
2022/11/17 03:54:28;;;;;;;6.05;2.60;;;9.80;99.90;;;;;;5025495;28;20112;-74
2022/11/17 03:57:18;;;;;;;4.88;3.00;;;9.80;99.90;;;;;;5034850;28;20148;-74
2022/11/17 03:59:53;;;;;;;4.03;2.45;;;9.80;99.90;;;;;;5025432;28;20029;-74
2022/11/17 04:02:23;;;;;;;3.80;2.72;;;9.80;99.90;;;;;;5025929;28;20410;-75
2022/11/17 04:05:07;;;;;;;5.05;2.72;;;9.80;99.90;;;;;;5029432;28;20293;-73
2022/11/17 04:07:34;;;;;;;;;;;9.80;99.90;;;;;;5022054;28;20057;-74
2022/11/17 04:10:14;;;;;;;5.97;2.70;;;9.70;99.90;;;;;;5029357;28;19909;-74
2022/11/17 04:15:55;;;;;;;4.60;2.28;;;9.80;99.90;;;;;;5028878;28;20029;-74
2022/11/17 04:18:16;;;;;;;4.18;2.22;;;9.80;99.90;;;;;;5032315;28;20112;-73
2022/11/17 04:20:49;;;;;;;5.28;2.60;;;9.80;99.90;;;;;;5019119;28;20033;-74
2022/11/17 04:23:15;;;;;;;4.00;2.58;;;9.80;99.90;;;;;;5027741;28;20080;-74
2022/11/17 04:28:35;;;;;;;6.15;2.97;;;9.80;99.90;;;;;;5029744;28;20559;-74
2022/11/17 04:31:08;;;;;;;;;;;9.80;99.90;;;;;;5030639;28;20021;-73
2022/11/17 04:33:35;;;;;;;5.10;2.40;;;9.80;99.90;;;;;;5033462;28;20373;-73
2022/11/17 04:36:04;;;;;;;5.10;2.30;;;9.80;99.90;;;;;;5033176;28;20017;-73
2022/11/17 04:38:29;;;;;;;5.03;2.63;;;9.80;99.90;;;;;;5029878;28;20027;-74
2022/11/17 04:44:11;;;;;;;2.47;1.50;;;9.80;99.90;;;;;;5024606;28;20039;-73
2022/11/17 04:46:38;;;;;;;3.30;1.85;;;9.80;99.90;;;;;;5030804;28;20029;-72
2022/11/17 04:49:07;;;;;;;3.55;1.63;;;9.80;99.90;;;;;;5032042;28;20105;-73
2022/11/17 04:51:36;;;;;;;3.22;1.70;;;9.80;99.90;;;;;;5031891;28;20088;-73
2022/11/17 04:54:03;;;;;;;4.63;2.00;;;9.80;99.90;;;;;;5028211;28;20108;-73
2022/11/17 04:56:29;;;;;;;2.47;1.55;;;9.80;99.90;;;;;;5032847;28;20029;-73
2022/11/17 04:59:01;;;;;;;3.58;1.38;;;9.80;99.90;;;;;;5034012;28;20048;-73
2022/11/17 05:01:29;;;;;;;3.30;1.85;;;9.80;99.90;;;;;;5033331;28;20422;-74
2022/11/17 05:04:54;;;;;;;4.32;1.90;;;9.90;99.90;;;;;;5021371;28;20029;-74
2022/11/17 05:07:06;;;;;;;5.32;1.98;;;9.90;99.90;;;;;;5029859;28;20013;-73
2022/11/17 05:09:31;;;;;;;3.45;1.60;;;9.80;99.90;;;;;;5029050;28;20054;-74
2022/11/17 05:14:41;;;;;;;2.45;1.15;;;9.90;99.90;;;;;;5032472;28;20088;-73
2022/11/17 05:17:08;;;;;;;3.95;1.70;;;9.90;99.90;;;;;;5028407;28;20030;-73
2022/11/17 05:19:47;;;;;;;4.50;1.70;;;10.00;99.90;;;;;;5026343;28;20021;-73
2022/11/17 05:25:04;;;;;;;4.93;1.30;;;10.00;99.90;;;;;;5031075;28;20016;-74
2022/11/17 05:27:30;;;;;;;2.67;1.45;;;10.00;99.90;;;;;;5029133;28;20021;-74
2022/11/17 05:29:55;;;;;;;3.90;1.55;;;10.10;99.90;;;;;;5022013;28;20398;-74
2022/11/17 05:32:21;;;;;;;2.05;1.15;;;10.10;99.90;;;;;;5024553;28;20040;-74
2022/11/17 05:34:50;;;;;;;1.70;1.00;;;10.10;99.90;;;;;;5030006;28;20056;-73
2022/11/17 05:37:15;;;;;;;2.60;1.10;;;10.10;99.90;;;;;;5029171;28;20045;-74
2022/11/17 05:39:41;;;;;;;2.50;1.15;;;10.10;99.90;;;;;;5025513;28;20033;-71
2022/11/17 05:42:06;;;;;;;3.10;1.27;;;10.20;99.90;;;;;;5028709;28;20341;-74
2022/11/17 05:44:32;;;;;;;2.10;1.27;;;10.20;99.90;;;;;;5032368;28;20025;-73
2022/11/17 05:46:58;;;;;;;2.40;1.33;;;10.20;99.90;;;;;;5030034;28;20029;-73
2022/11/17 05:49:24;;;;;;;3.63;1.35;;;10.20;99.90;;;;;;5030850;28;20034;-74
2022/11/17 05:51:49;;;;;;;2.97;1.20;;;10.20;99.90;;;;;;5022450;28;20044;-74
2022/11/17 05:54:18;;;;;;;1.95;1.52;;;10.10;99.90;;;;;;5019922;28;20142;-74
2022/11/17 05:56:49;;;;;;;2.38;1.30;;;10.10;99.90;;;;;;5031592;28;20029;-72
2022/11/17 05:59:25;;;;;;;3.33;1.50;;;10.10;99.90;;;;;;5029236;28;20104;-74
2022/11/17 06:02:20;;;;;;;3.88;1.65;;;10.00;99.90;;;;;;5046010;28;20026;-74
2022/11/17 06:04:48;;;;;;;2.58;1.75;;;10.00;99.90;;;;;;5034315;28;20026;-74
2022/11/17 06:07:18;;;;;;;3.08;1.67;;;10.00;99.90;;;;;;5030625;28;20084;-74
2022/11/17 06:09:45;;;;;;;3.67;1.95;;;9.90;99.90;;;;;;5030091;28;20032;-74
2022/11/17 06:12:11;;;;;;;5.03;1.73;;;9.90;99.90;;;;;;5031033;28;20390;-73
2022/11/17 06:14:39;;;;;;;5.57;1.83;;;9.80;99.90;;;;;;5029181;28;20025;-73
2022/11/17 06:17:15;;;;;;;3.78;1.95;;;9.80;99.90;;;;;;5020616;28;20203;-74
2022/11/17 06:19:48;;;;;;;2.75;1.67;;;9.80;99.90;;;;;;5028767;28;20025;-74
2022/11/17 06:22:14;;;;;;;2.47;1.45;;;9.80;99.90;;;;;;5031018;28;20033;-74
2022/11/17 06:24:42;;;;;;;3.30;1.52;;;9.80;99.90;;;;;;5030232;28;20040;-73
2022/11/17 06:27:09;;;;;;;2.53;1.40;;;9.80;99.90;;;;;;5029802;28;20028;-73
2022/11/17 06:29:35;;;;;;;2.47;1.40;;;9.80;99.90;;;;;;5032462;28;20026;-73
2022/11/17 06:32:03;;;;;;;2.55;1.08;;;9.80;99.90;;;;;;5037787;28;20024;-74
2022/11/17 06:34:33;;;;;;;3.83;1.20;;;9.90;99.90;;;;;;5033344;28;20478;-73
2022/11/17 06:37:05;;;;;;;3.63;1.13;;;9.90;99.90;;;;;;5030196;28;20108;-73
2022/11/17 06:39:30;;;;;;;2.92;1.05;;;9.90;99.90;;;;;;5031077;28;20052;-73
2022/11/17 06:41:56;;;;;;;4.20;1.58;;;9.90;99.90;;;;;;5018093;28;20034;-73
2022/11/17 06:44:22;;;;;;;2.58;1.00;;;9.90;99.90;;;;;;5026339;28;20094;-72
2022/11/17 06:46:47;;;;;;;4.28;1.10;;;9.90;99.90;;;;;;5035547;28;20041;-73
2022/11/17 06:49:16;;;;;;;4.35;0.90;;;9.90;99.90;;;;;;5026874;28;20085;-73
2022/11/17 06:51:41;;;;;;;1.95;0.80;;;10.00;99.90;;;;;;5033914;28;20032;-73
2022/11/17 06:54:13;;;;;;;1.63;0.68;;;10.00;99.90;;;;;;5034067;28;20025;-73
2022/11/17 06:56:42;;;;;;;3.95;1.00;;;10.10;99.90;;;;;;5034220;28;20026;-73
2022/11/17 06:59:08;;;;;;;5.10;1.33;;;10.10;99.90;;;;;;5019558;28;20478;-74
2022/11/17 07:01:39;;;;;;;3.42;1.58;;;10.10;99.90;;;;;;5029083;28;20029;-74
2022/11/17 07:04:06;;;;;;;4.80;1.27;;;10.10;99.90;;;;;;5034020;28;20022;-74
2022/11/17 07:06:35;;;;;;;3.50;1.35;;;10.00;99.90;;;;;;5033976;28;20023;-74
2022/11/17 07:09:01;;;;;;;2.42;1.20;;;10.00;99.90;;;;;;5032644;28;20482;-75
2022/11/17 07:11:27;;;;;;;2.75;1.13;;;10.00;99.90;;;;;;5045187;22;20107;-79
2022/11/17 07:13:53;;;;;;;6.18;1.20;;;10.00;99.90;;;;;;5025987;28;20386;-80
2022/11/17 07:16:19;;;;;;;3.05;1.15;;;10.00;99.90;;;;;;5027217;28;20073;-80
2022/11/17 07:18:45;;;;;;;3.63;1.30;;;10.00;99.90;;;;;;5033049;28;20022;-77
2022/11/17 07:21:13;;;;;;;5.18;2.00;;;10.10;99.90;;;;;;5029851;28;20037;-79
2022/11/17 07:23:40;;;;;;;5.78;1.73;;;10.20;99.90;;;;;;5024873;28;20062;-78
2022/11/17 07:26:06;;;;;;;4.53;1.65;;;10.30;99.90;;;;;;5025832;28;20030;-77
2022/11/17 07:28:33;;;;;;;6.25;1.55;;;10.50;99.90;;;;;;5033800;28;20025;-83
2022/11/17 07:31:06;;;;;;;3.97;0.77;;;10.70;99.90;;;;;;5029660;28;20034;-79
2022/11/17 07:33:33;;;;;;;4.40;0.90;;;10.70;99.90;;;;;;5028199;28;20028;-80
2022/11/17 07:36:04;;;;;;;5.53;0.88;;;10.80;99.90;;;;;;5029874;28;20033;-80
2022/11/17 07:38:31;;;;;;;4.28;0.88;;;10.90;99.90;;;;;;5030625;28;20025;-80
2022/11/17 07:40:59;;;;;;;5.10;0.85;;;10.90;99.90;;;;;;5077808;23;20131;-79
2022/11/17 07:43:24;;;;;;;2.40;0.60;;;11.00;99.90;;;;;;5050914;28;20025;-79
2022/11/17 07:45:50;;;;;;;3.45;1.00;;;11.00;99.90;;;;;;5048221;28;20098;-80
2022/11/17 07:48:15;;;;;;;2.28;0.60;;;11.00;99.90;;;;;;5048651;28;20045;-79
2022/11/17 07:50:41;;;;;;;5.05;1.00;;;10.90;99.90;;;;;;5050316;28;20029;-79
2022/11/17 07:53:07;;;;;;;1.83;0.60;;;10.90;99.90;;;;;;5050260;28;20032;-79
2022/11/17 07:55:32;;;;;;;4.35;0.88;;;10.90;99.90;;;;;;5050488;28;20139;-79
2022/11/17 07:58:00;;;;;;;2.47;0.90;;;10.80;99.90;;;;;;5052466;28;20025;-79
2022/11/17 08:00:28;;;;;;;3.47;0.77;;;10.80;99.90;;;;;;5045167;28;20024;-80
2022/11/17 08:02:54;;;;;;;1.98;0.70;;;10.80;99.90;;;;;;5059887;28;20025;-79
2022/11/17 08:05:20;;;;;;;2.70;0.63;;;10.80;99.90;;;;;;5044913;28;20110;-80
2022/11/17 08:07:53;;;;;;;8.38;1.17;;;10.80;99.90;;;;;;5047897;28;20036;-80
2022/11/17 08:10:20;;;;;;;3.78;0.65;;;10.80;99.90;;;;;;5044223;28;20021;-81
2022/11/17 08:12:46;;;;;;;1.65;0.50;;;10.80;99.90;;;;;;5049580;28;20493;-79
2022/11/17 08:15:11;;;;;;;2.03;0.70;;;10.80;99.90;;;;;;5049450;28;20036;-79
2022/11/17 08:17:37;;;;;;;5.35;1.15;;;10.80;99.90;;;;;;5051528;28;20535;-80
2022/11/17 08:20:04;;;;;;;3.60;0.70;;;10.70;99.90;;;;;;5044694;28;20028;-80
2022/11/17 08:22:29;;;;;;;2.70;0.65;;;10.70;99.90;;;;;;5049091;28;20029;-81
2022/11/17 08:24:55;;;;;;;3.47;0.68;;;10.70;99.90;;;;;;5046608;28;20429;-81
2022/11/17 08:27:21;;;;;;;3.38;0.70;;;10.70;99.90;;;;;;5043861;28;20025;-81
2022/11/17 08:29:46;;;;;;;2.45;0.70;;;10.70;99.90;;;;;;5045658;28;20025;-81
2022/11/17 08:32:12;;;;;;;3.53;0.68;;;10.70;99.90;;;;;;5047791;28;20021;-81
2022/11/17 08:34:37;;;;;;;1.25;0.35;;;10.70;99.90;;;;;;5047368;28;20032;-81
2022/11/17 08:37:03;;;;;;;2.80;0.70;;;10.70;99.90;;;;;;5040254;28;20026;-81
2022/11/17 08:39:29;;;;;;;4.47;0.95;;;10.70;99.90;;;;;;5039749;28;20699;-79
2022/11/17 08:41:54;;;;;;;1.23;0.45;;;10.70;99.90;;;;;;5041090;28;20190;-83
2022/11/17 08:44:20;;;;;;;3.03;0.73;;;10.70;99.90;;;;;;5034460;28;20060;-82
2022/11/17 08:46:46;;;;;;;2.10;0.40;;;10.70;99.90;;;;;;5041209;28;20025;-82
2022/11/17 08:49:11;;;;;;;2.88;0.60;;;10.70;99.90;;;;;;5040714;28;20020;-82
2022/11/17 08:51:37;;;;;;;2.00;0.77;;;10.70;99.90;;;;;;5037879;28;20086;-83
2022/11/17 08:54:03;;;;;;;3.92;0.68;;;10.70;99.90;;;;;;5047199;28;20032;-82
2022/11/17 08:56:28;;;;;;;3.05;0.90;;;10.70;99.90;;;;;;5044955;28;20040;-83
2022/11/17 08:58:54;;;;;;;2.67;0.57;;;10.70;99.90;;;;;;5035112;28;20072;-81
2022/11/17 09:01:19;;;;;;;1.77;0.70;;;10.70;99.90;;;;;;5028026;28;20056;-80
2022/11/17 09:03:46;;;;;;;2.47;0.60;;;10.70;99.90;;;;;;5042731;28;20048;-81
2022/11/17 09:06:14;;;;;;;2.55;0.50;;;10.80;99.90;;;;;;5040882;28;20036;-80
2022/11/17 09:08:40;;;;;;;4.65;0.70;;;10.80;99.90;;;;;;5038419;28;20037;-81
2022/11/17 09:11:08;;;;;;;1.85;0.50;;;10.80;99.90;;;;;;5036069;28;20032;-81
2022/11/17 09:13:34;;;;;;;3.53;0.40;;;10.80;99.90;;;;;;5038028;28;20068;-81
2022/11/17 09:16:05;;;;;;;1.80;0.30;;;10.90;99.90;;;;;;5036357;28;20057;-81
2022/11/17 09:18:32;;;;;;;2.22;0.40;;;10.90;99.90;;;;;;5050012;28;20506;-81
2022/11/17 09:21:07;;;;;;;1.30;0.40;;;10.90;99.90;;;;;;5040987;28;20083;-80
2022/11/17 09:23:32;;;;;;;1.73;0.50;;;10.90;99.90;;;;;;5041883;28;20048;-81
2022/11/17 09:26:02;;;;;;;1.15;0.40;;;11.00;99.90;;;;;;5041916;28;20021;-81
2022/11/17 09:28:28;;;;;;;4.53;0.60;;;11.00;99.90;;;;;;5041858;28;20082;-78
2022/11/17 09:30:54;;;;;;;0.25;0.10;;;11.00;99.90;;;;;;5038751;28;20505;-79
2022/11/17 09:33:19;;;;;;;2.40;0.40;;;11.00;99.90;;;;;;5039907;28;20036;-81
2022/11/17 09:35:45;;;;;;;0.50;0.20;;;10.90;99.90;;;;;;5039382;28;20489;-80
2022/11/17 09:38:11;;;;;;;1.02;0.30;;;10.90;99.90;;;;;;5042401;28;20029;-80
2022/11/17 09:40:41;;;;;;;1.25;0.40;;;10.90;99.90;;;;;;5042968;28;20473;-81
2022/11/17 09:43:27;;;;;;;1.15;0.30;;;10.90;99.90;;;;;;5042669;28;20029;-80
2022/11/17 09:46:03;;;;;;;0.73;0.32;;;10.90;99.90;;;;;;5044112;28;20110;-81
2022/11/17 09:48:42;;;;;;;0.70;0.30;;;10.90;99.90;;;;;;5035352;28;20017;-81
2022/11/17 09:51:13;;;;;;;1.73;0.20;;;11.00;99.90;;;;;;5047509;28;20048;-81
2022/11/17 09:54:14;;;;;;;3.10;0.30;;;11.00;99.90;;;;;;5043934;28;20028;-81
2022/11/17 09:56:40;;;;;;;2.38;0.30;;;11.00;99.90;;;;;;5001300;28;20026;-80
2022/11/17 09:59:11;;;;;;;1.27;0.30;;;11.10;99.90;;;;;;5035491;28;20115;-79
2022/11/17 10:01:37;;;;;;;1.90;0.40;;;11.10;99.90;;;;;;5032074;28;20021;-81
2022/11/17 10:04:12;;;;;;;0.50;0.20;;;11.10;99.90;;;;;;5032953;28;20036;-81
2022/11/17 10:06:40;;;;;;;0.98;0.35;;;11.20;99.90;;;;;;5038940;28;20104;-80
2022/11/17 10:09:27;;;;;;;1.00;0.28;;;11.20;99.90;;;;;;5028706;28;20037;-82
2022/11/17 10:11:57;;;;;;;2.47;0.70;;;11.20;99.90;;;;;;5047044;28;20092;-80
2022/11/17 10:14:27;;;;;;;2.42;0.40;;;11.30;99.90;;;;;;5041035;28;20017;-80
2022/11/17 10:16:55;;;;;;;2.88;0.57;;;11.30;99.90;;;;;;5036474;28;20625;-81
2022/11/17 10:19:24;;;;;;;3.80;0.60;;;11.20;99.90;;;;;;5040136;28;20082;-81
2022/11/17 10:21:54;;;;;;;2.78;0.70;;;11.30;99.90;;;;;;5044010;28;20079;-81
2022/11/17 10:24:43;;;;;;;2.00;0.57;;;11.30;99.90;;;;;;5037618;28;20422;-82
2022/11/17 10:27:28;;;;;;;3.85;0.70;;;11.30;99.90;;;;;;5035641;28;20030;-82
2022/11/17 10:30:19;;;;;;;3.05;0.65;;;11.30;99.90;;;;;;5034879;28;20217;-81
2022/11/17 10:32:50;;;;;;;2.25;0.50;;;11.40;99.90;;;;;;5040704;28;20039;-81
2022/11/17 10:35:19;;;;;;;4.53;0.70;;;11.40;99.90;;;;;;5036769;28;20040;-82
2022/11/17 10:37:56;;;;;;;3.83;0.90;;;11.40;99.90;;;;;;5036526;28;20028;-81
2022/11/17 10:40:31;;;;;;;3.40;0.50;;;11.40;99.90;;;;;;5042685;28;20036;-81
2022/11/17 10:43:04;;;;;;;5.10;0.70;;;11.40;99.90;;;;;;5038828;28;20061;-80
2022/11/17 10:45:31;;;;;;;5.53;0.80;;;11.40;99.90;;;;;;5042001;28;20499;-80
2022/11/17 10:48:16;;;;;;;3.63;0.60;;;11.40;99.90;;;;;;5045425;28;20029;-81
2022/11/17 10:51:14;;;;;;;4.28;0.93;;;11.50;99.90;;;;;;5034425;28;20030;-81
2022/11/17 10:53:42;;;;;;;4.00;0.82;;;11.60;99.90;;;;;;5038493;28;20037;-81
2022/11/17 10:56:20;;;;;;;3.50;0.90;;;11.60;99.90;;;;;;5039500;28;20029;-81
2022/11/17 10:59:19;;;;;;;2.83;0.80;;;11.70;99.90;;;;;;5041102;28;20108;-80
2022/11/17 11:01:49;;;;;;;4.88;1.00;;;11.80;99.90;;;;;;5037907;28;20320;-81
2022/11/17 11:04:30;;;;;;;2.30;1.00;;;11.80;99.90;;;;;;5043447;28;20061;-83
2022/11/17 11:07:19;;;;;;;5.43;0.93;;;11.70;99.90;;;;;;5043608;28;20037;-82
2022/11/17 11:10:13;;;;;;;5.22;1.10;;;11.70;99.90;;;;;;5042210;28;20032;-82
2022/11/17 11:12:55;;;;;;;;;;;11.60;99.90;;;;;;5054431;28;20036;-82
2022/11/17 11:15:23;;;;;;;5.40;1.58;;;11.60;99.90;;;;;;5038644;28;19959;-79
2022/11/17 11:17:50;;;;;;;5.43;1.08;;;11.60;99.90;;;;;;5042414;28;20033;-80
2022/11/17 11:20:18;;;;;;;8.27;1.83;;;11.60;99.90;;;;;;5039407;28;20159;-79
2022/11/17 11:23:13;;;;;;;4.72;0.80;;;11.60;99.90;;;;;;5042750;28;20467;-81
2022/11/17 11:25:54;;;;;;;14.75;2.05;;;11.60;99.90;;;;;;5041785;28;20052;-81
2022/11/17 11:28:39;;;;;;;5.57;1.00;;;11.60;99.90;;;;;;5043884;28;20382;-81
2022/11/17 11:31:19;;;;;;;5.38;1.17;;;11.70;99.90;;;;;;5034414;28;20429;-78
2022/11/17 11:33:49;;;;;;;3.95;1.02;;;11.80;99.90;;;;;;5039709;28;20025;-79
2022/11/17 11:36:54;;;;;;;5.53;1.10;;;11.90;99.90;;;;;;5039241;28;20037;-79
2022/11/17 11:39:48;;;;;;;6.47;1.42;;;11.90;99.90;;;;;;5045349;28;20029;-78
2022/11/17 11:42:14;;;;;;;3.90;0.80;;;12.10;99.90;;;;;;5038595;28;20124;-79
2022/11/17 11:45:24;;;;;;;10.60;1.55;;;12.10;99.90;;;;;;5039113;28;20521;-79
2022/11/17 11:48:17;;;;;;;6.70;1.77;;;12.20;99.90;;;;;;5016964;28;20034;-79
2022/11/17 11:51:08;;;;;;;9.48;1.88;;;12.20;99.90;;;;;;5017809;28;20060;-79
2022/11/17 11:53:43;;;;;;;5.22;1.08;;;12.40;99.90;;;;;;5036100;28;20102;-79
2022/11/17 11:56:17;;;;;;;8.40;1.33;;;12.40;99.90;;;;;;5039776;28;20025;-80
2022/11/17 11:58:48;;;;;;;4.38;1.63;;;12.50;99.90;;;;;;5046830;28;20030;-78
2022/11/17 12:01:17;;;;;;;11.02;1.85;;;12.70;99.90;;;;;;5040898;28;20041;-79
2022/11/17 12:04:01;;;;;;;8.68;2.20;;;12.80;99.90;;;;;;5043439;28;20036;-77
2022/11/17 12:07:03;;;;;;;9.15;2.00;;;12.90;99.90;;;;;;5038180;28;20052;-79
2022/11/17 12:09:52;;;;;;;7.90;1.17;;;13.00;99.90;;;;;;5043113;28;20041;-79
2022/11/17 12:12:28;;;;;;;7.38;1.13;;;13.10;99.90;;;;;;5044342;28;20040;-79
2022/11/17 12:15:08;;;;;;;8.48;1.52;;;13.10;99.90;;;;;;5044436;28;20473;-79
2022/11/17 12:17:34;;;;;;;7.95;2.13;;;13.20;99.90;;;;;;5045254;28;20017;-79
2022/11/17 12:20:03;;;;;;;7.15;1.25;;;13.10;99.90;;;;;;5046433;28;20021;-80
2022/11/17 12:22:28;;;;;;;11.23;3.08;;;13.10;99.90;;;;;;5043078;28;20021;-80
2022/11/17 12:24:56;;;;;;;9.50;1.85;;;13.00;99.90;;;;;;5044420;28;20111;-81
2022/11/17 12:27:34;;;;;;;10.60;1.80;;;13.00;99.90;;;;;;5044424;28;20029;-81
2022/11/17 12:30:01;;;;;;;12.35;2.53;;;13.00;99.90;;;;;;5043980;28;20494;-81
2022/11/17 12:32:45;;;;;;;6.15;1.40;;;13.00;99.90;;;;;;5037381;28;20029;-81
2022/11/17 12:35:26;;;;;;;6.85;1.85;;;13.00;99.90;;;;;;5042719;28;20025;-81
2022/11/17 12:38:16;;;;;;;9.75;1.65;;;13.00;99.90;;;;;;5042090;28;20029;-81
2022/11/17 12:40:44;;;;;;;9.70;1.85;;;12.90;99.90;;;;;;5050853;28;20037;-81
2022/11/17 12:43:18;;;;;;;8.73;1.70;;;12.90;99.90;;;;;;5035240;28;20037;-79
2022/11/17 12:46:12;;;;;;;9.70;1.58;;;12.90;99.90;;;;;;5048754;28;20047;-81
2022/11/17 12:48:44;;;;;;;6.90;1.33;;;12.90;99.90;;;;;;5043967;28;20028;-81
2022/11/17 12:51:32;;;;;;;14.98;1.80;;;13.00;99.90;;;;;;5041398;28;20746;-80
2022/11/17 12:54:05;;;;;;;10.55;1.67;;;12.90;99.90;;;;;;5042621;28;20022;-82
2022/11/17 12:56:56;;;;;;;6.67;1.20;;;13.00;99.90;;;;;;5039322;28;20113;-80
2022/11/17 12:59:34;;;;;;;13.13;1.98;;;13.00;99.90;;;;;;5045679;28;20021;-80
2022/11/17 13:02:24;;;;;;;9.93;1.80;;;13.00;99.90;;;;;;5036028;28;20549;-79
2022/11/17 13:04:56;;;;;;;7.97;1.67;;;13.10;99.90;;;;;;5038836;28;20543;-81
2022/11/17 13:07:24;;;;;;;10.55;1.85;;;13.10;99.90;;;;;;5041443;28;20389;-82
2022/11/17 13:09:56;;;;;;;8.13;1.75;;;13.20;99.90;;;;;;5040131;28;20023;-80
2022/11/17 13:12:29;;;;;;;6.07;1.23;;;13.30;99.90;;;;;;5043954;28;20029;-81
2022/11/17 13:14:57;;;;;;;8.70;2.03;;;13.40;99.90;;;;;;5036466;28;20051;-80
2022/11/17 13:17:42;;;;;;;8.43;1.60;;;13.40;99.90;;;;;;5076027;28;20144;-80
2022/11/17 13:20:26;;;;;;;10.25;1.83;;;13.50;99.90;;;;;;5044920;28;20071;-79
2022/11/17 13:23:21;;;;;;;8.35;1.85;;;13.50;99.90;;;;;;5043324;28;20025;-80
2022/11/17 13:25:49;;;;;;;8.93;1.52;;;13.40;99.90;;;;;;5068607;28;20040;-80
2022/11/17 13:28:31;;;;;;;7.68;1.20;;;13.30;99.90;;;;;;5044767;28;20021;-81
2022/11/17 13:30:58;;;;;;;8.48;1.65;;;13.30;99.90;;;;;;5040514;28;20029;-81
2022/11/17 13:33:25;;;;;;;8.05;1.75;;;13.20;99.90;;;;;;5041752;28;20033;-80
2022/11/17 13:36:18;;;;;;;14.40;2.53;;;13.20;99.90;;;;;;5041172;28;20469;-81
2022/11/17 13:38:51;;;;;;;7.57;2.17;;;13.10;99.90;;;;;;5048420;28;20100;-80
2022/11/17 13:41:19;;;;;;;8.93;1.80;;;13.10;99.90;;;;;;5071746;28;20041;-81
2022/11/17 13:43:47;;;;;;;8.05;1.35;;;13.00;99.90;;;;;;5039982;28;20112;-81
2022/11/17 13:46:13;;;;;;;11.90;2.22;;;13.10;99.90;;;;;;5037107;28;20037;-82
2022/11/17 13:48:41;;;;;;;8.23;1.60;;;13.00;99.90;;;;;;5037407;28;20036;-81